.
WxDataArchive / Data Records for 2013-10-22
2013-10-21 October 2013 2013-10-23

Data Records for Tuesday, 22 October 2013

Time	Temp	Chill	HIndex	Humid	Dewpt	 Wind 	HiWind	WindDir	Rain 	Barom 
-----	----	-----	------	-----	-----	------	------	-------	-----	----- 
00:00	39.1	39.1	39.1	67	29.1	0	2	270	0.00	29.931 
00:05	38.9	38.9	38.9	66	28.5	0	2	270	0.00	29.931 
00:10	38.8	38.8	38.8	66	28.4	0	3	270	0.00	29.931 
00:15	38.8	38.8	38.8	66	28.4	0	1	270	0.00	29.934 
00:20	38.5	38.5	38.5	66	28.1	0	2	270	0.00	29.934 
00:25	38.3	38.3	38.3	65	27.6	1	3	270	0.00	29.934 
00:30	38.3	38.3	38.3	65	27.6	1	3	270	0.00	29.933 
00:35	38.3	38.3	38.3	65	27.6	0	1	270	0.00	29.933 
00:40	38.0	38.0	38.0	65	27.3	0	1	270	0.00	29.933 
00:45	37.9	37.9	37.9	65	27.2	0	2	270	0.00	29.933 
00:50	37.8	37.8	37.8	66	27.5	0	1	270	0.00	29.933 
00:55	37.6	37.6	37.6	66	27.3	0	1	270	0.00	29.933 
01:00	37.5	37.5	37.5	66	27.2	0	3	270	0.00	29.935 
01:05	37.5	37.5	37.5	66	27.2	0	2	270	0.00	29.935 
01:10	37.3	37.3	37.3	66	27.0	0	2	270	0.00	29.935 
01:15	37.2	37.2	37.2	67	27.3	0	2	270	0.00	29.937 
01:20	37.2	37.2	37.2	67	27.3	0	1	270	0.00	29.937 
01:25	37.0	37.0	37.0	67	27.1	0	2	270	0.00	29.937 
01:30	37.0	37.0	37.0	67	27.1	0	1	270	0.00	29.936 
01:35	36.9	36.9	36.9	67	27.0	0	1	270	0.00	29.936 
01:40	36.9	36.9	36.9	67	27.0	0	1	270	0.00	29.936 
01:45	36.8	36.8	36.8	67	26.9	0	2	270	0.00	29.938 
01:50	36.6	36.6	36.6	67	26.7	0	1	270	0.00	29.938 
01:55	36.5	36.5	36.5	68	27.0	0	1	270	0.00	29.938 
02:00	36.3	36.3	36.3	69	27.1	0	1	270	0.00	29.940 
02:05	36.2	36.2	36.2	68	26.7	0	1	270	0.00	29.940 
02:10	36.2	36.2	36.2	69	27.0	0	1	270	0.00	29.940 
02:15	36.0	36.0	36.0	69	26.8	0	1	270	0.00	29.947 
02:20	35.9	35.9	35.9	69	26.7	0	0	---	0.00	29.947 
02:25	35.8	35.8	35.8	70	27.0	0	1	270	0.00	29.947 
02:30	35.6	35.6	35.6	70	26.8	0	1	270	0.00	29.944 
02:35	35.5	35.5	35.5	70	26.7	0	1	270	0.00	29.944 
02:40	35.5	35.5	35.5	71	27.0	0	1	270	0.00	29.944 
02:45	35.3	35.3	35.3	71	26.9	0	0	---	0.00	29.950 
02:50	35.2	35.2	35.2	71	26.8	0	1	270	0.00	29.950 
02:55	35.0	35.0	35.0	72	26.9	0	1	270	0.00	29.950 
03:00	34.9	34.9	34.9	72	26.8	0	0	---	0.00	29.953 
03:05	34.7	34.7	34.7	73	26.9	0	0	---	0.00	29.953 
03:10	34.6	34.6	34.6	73	26.9	0	0	---	0.00	29.953 
03:15	34.4	34.4	34.4	73	26.7	0	1	270	0.00	29.956 
03:20	34.3	34.3	34.3	73	26.6	0	1	270	0.00	29.956 
03:25	34.3	34.3	34.3	73	26.6	0	1	270	0.00	29.956 
03:30	34.1	34.1	34.1	74	26.7	0	1	270	0.00	29.954 
03:35	34.1	34.1	34.1	74	26.7	0	1	270	0.00	29.954 
03:40	34.0	34.0	34.0	74	26.6	0	1	270	0.00	29.954 
03:45	34.0	34.0	34.0	74	26.6	0	1	270	0.00	29.957 
03:50	33.8	33.8	33.8	74	26.4	0	1	270	0.00	29.957 
03:55	33.8	33.8	33.8	74	26.4	0	1	270	0.00	29.957 
04:00	33.8	33.8	33.8	74	26.4	0	1	270	0.00	29.957 
04:05	33.8	33.8	33.8	74	26.4	0	1	270	0.00	29.957 
04:10	33.7	33.7	33.7	74	26.3	0	0	---	0.00	29.957 
04:15	33.7	33.7	33.7	74	26.3	0	1	270	0.00	29.957 
04:20	33.7	33.7	33.7	74	26.3	0	1	270	0.00	29.957 
04:25	33.5	33.5	33.5	74	26.1	0	1	270	0.00	29.957 
04:30	33.5	33.5	33.5	73	25.8	0	1	270	0.00	29.955 
04:35	33.5	33.5	33.5	73	25.8	0	1	270	0.00	29.955 
04:40	33.7	33.7	33.7	72	25.7	0	1	270	0.00	29.955 
04:45	33.7	33.7	33.7	72	25.7	0	2	270	0.00	29.958 
04:50	33.7	33.7	33.7	72	25.7	0	1	270	0.00	29.958 
04:55	33.7	33.7	33.7	72	25.7	0	1	270	0.00	29.958 
05:00	33.7	33.7	33.7	72	25.7	0	1	270	0.00	29.958 
05:05	33.5	33.5	33.5	72	25.5	0	1	270	0.00	29.958 
05:10	33.5	33.5	33.5	72	25.5	0	0	---	0.00	29.958 
05:15	33.4	33.4	33.4	72	25.4	0	1	270	0.00	29.960 
05:20	33.2	33.2	33.2	72	25.2	0	1	270	0.00	29.960 
05:25	33.2	33.2	33.2	72	25.2	0	1	270	0.00	29.960 
05:30	33.1	33.1	33.1	72	25.1	0	1	270	0.00	29.961 
05:35	33.2	33.2	33.2	72	25.2	0	1	270	0.00	29.961 
05:40	33.2	33.2	33.2	72	25.2	0	1	270	0.00	29.961 
05:45	33.2	33.2	33.2	72	25.2	0	1	270	0.00	29.965 
05:50	33.2	33.2	33.2	71	24.8	0	1	270	0.00	29.965 
05:55	33.2	33.2	33.2	71	24.8	0	1	270	0.00	29.965 
06:00	33.2	33.2	33.2	71	24.8	0	0	---	0.00	29.968 
06:05	33.1	33.1	33.1	71	24.7	0	1	270	0.00	29.968 
06:10	33.1	33.1	33.1	72	25.1	0	1	270	0.00	29.968 
06:15	33.1	33.1	33.1	72	25.1	0	0	---	0.00	29.971 
06:20	32.9	32.9	32.9	72	24.9	0	1	270	0.00	29.971 
06:25	32.8	32.8	32.8	72	24.8	0	0	---	0.00	29.971 
06:30	32.7	32.7	32.7	73	25.0	0	0	---	0.00	29.974 
06:35	32.7	32.7	32.7	73	25.0	0	0	---	0.00	29.974 
06:40	32.7	32.7	32.7	73	25.0	0	1	270	0.00	29.974 
06:45	32.5	32.5	32.5	73	24.8	0	0	---	0.00	29.975 
06:50	32.5	32.5	32.5	73	24.8	0	0	---	0.00	29.975 
06:55	32.5	32.5	32.5	73	24.8	0	1	270	0.00	29.975 
07:00	32.5	32.5	32.5	73	24.8	0	0	---	0.00	29.973 
07:05	32.4	32.4	32.4	74	25.1	0	1	270	0.00	29.973 
07:10	32.4	32.4	32.4	74	25.1	0	0	---	0.00	29.973 
07:15	32.2	32.2	32.2	74	24.9	0	1	270	0.00	29.978 
07:20	32.2	32.2	32.2	74	24.9	0	0	---	0.00	29.978 
07:25	32.2	32.2	32.2	74	24.9	0	1	270	0.00	29.978 
07:30	32.2	32.2	32.2	74	24.9	0	2	292	0.00	29.980 
07:35	32.2	32.2	32.2	74	24.9	0	1	292	0.00	29.980 
07:40	32.2	32.2	32.2	74	24.9	0	1	292	0.00	29.980 
07:45	32.2	32.2	32.2	74	24.9	0	0	---	0.00	29.986 
07:50	32.1	32.1	32.1	74	24.8	0	1	292	0.00	29.986 
07:55	32.1	32.1	32.1	75	25.1	0	1	292	0.00	29.986 
08:00	32.1	32.1	32.1	75	25.1	0	1	292	0.00	29.987 
08:05	32.1	32.1	32.1	75	25.1	0	1	292	0.00	29.987 
08:10	32.1	32.1	32.1	75	25.1	0	1	292	0.00	29.987 
08:15	32.1	32.1	32.1	75	25.1	0	1	292	0.00	29.994 
08:20	32.1	32.1	32.1	75	25.1	0	1	292	0.00	29.994 
08:25	32.1	32.1	32.1	75	25.1	0	1	292	0.00	29.994 
08:30	32.1	32.1	32.1	75	25.1	0	1	292	0.00	29.998 
08:35	32.2	32.2	32.2	75	25.2	0	0	---	0.00	29.998 
08:40	32.4	32.4	32.4	74	25.1	0	1	292	0.00	29.998 
08:45	32.5	32.5	32.5	74	25.2	0	1	292	0.00	29.996 
08:50	32.8	32.8	32.8	73	25.1	0	1	292	0.00	29.996 
08:55	33.1	33.1	33.1	73	25.4	0	3	338	0.00	29.996 
09:00	33.4	33.4	33.4	72	25.4	0	1	338	0.00	29.996 
09:05	33.5	33.5	33.5	72	25.5	0	1	338	0.00	29.996 
09:10	33.8	33.8	33.8	71	25.4	0	1	338	0.00	29.996 
09:15	34.1	34.1	34.1	71	25.7	0	2	315	0.00	29.998 
09:20	34.6	34.6	34.6	70	25.8	0	1	315	0.00	29.998 
09:25	34.9	34.9	34.9	70	26.1	0	1	315	0.00	29.998 
09:30	35.3	35.3	35.3	69	26.2	0	2	315	0.00	29.998 
09:35	35.6	35.6	35.6	68	26.1	0	3	315	0.00	29.998 
09:40	36.0	36.0	36.0	67	26.1	0	4	270	0.00	29.998 
09:45	36.3	36.3	36.3	66	26.0	0	3	270	0.00	29.998 
09:50	36.6	36.6	36.6	66	26.3	1	2	270	0.00	29.998 
09:55	37.0	37.0	37.0	66	26.7	0	3	270	0.00	29.998 
10:00	37.5	37.5	37.5	65	26.8	0	1	270	0.00	30.006 
10:05	38.0	38.0	38.0	64	26.9	1	3	270	0.00	30.006 
10:10	38.5	38.5	38.5	63	27.0	2	5	292	0.00	30.006 
10:15	38.8	38.8	38.8	62	26.9	2	7	270	0.00	29.995 
10:20	39.1	39.1	39.1	62	27.2	1	4	270	0.00	29.995 
10:25	39.5	39.5	39.5	61	27.2	1	5	270	0.00	29.995 
10:30	39.8	39.8	39.8	59	26.7	2	6	270	0.00	29.995 
10:35	39.9	39.9	39.9	58	26.3	2	5	270	0.00	29.995 
10:40	40.3	40.3	40.3	58	26.7	1	4	270	0.00	29.995 
10:45	40.6	40.6	40.6	58	27.0	2	5	270	0.00	29.992 
10:50	40.9	40.9	40.9	57	26.9	1	3	270	0.00	29.992 
10:55	41.2	41.2	41.2	57	27.1	1	4	270	0.00	29.992 
11:00	41.6	41.6	41.6	55	26.6	2	6	270	0.00	29.988 
11:05	41.9	41.9	41.9	55	26.9	1	4	270	0.00	29.988 
11:10	42.1	42.1	42.1	53	26.2	2	5	270	0.00	29.988 
11:15	42.2	42.2	42.2	53	26.3	2	5	292	0.00	29.987 
11:20	42.5	42.5	42.5	52	26.1	1	3	248	0.00	29.987 
11:25	42.6	42.6	42.6	51	25.8	3	6	270	0.00	29.987 
11:30	42.6	42.6	42.6	51	25.8	3	6	270	0.00	29.986 
11:35	42.9	42.9	42.9	51	26.0	2	5	270	0.00	29.986 
11:40	43.3	43.3	43.3	50	25.9	1	4	292	0.00	29.986 
11:45	43.5	43.5	43.5	49	25.6	1	3	270	0.00	29.988 
11:50	43.8	43.8	43.8	49	25.9	2	4	270	0.00	29.988 
11:55	44.1	44.1	44.1	50	26.7	1	3	270	0.00	29.988 
12:00	44.2	44.2	44.2	50	26.8	1	5	248	0.00	29.981 
12:05	44.6	44.6	44.6	47	25.6	1	4	248	0.00	29.981 
12:10	44.9	44.9	44.9	48	26.4	1	4	270	0.00	29.981 
12:15	45.1	45.1	45.1	48	26.6	2	4	292	0.00	29.976 
12:20	45.2	45.2	45.2	46	25.7	1	3	292	0.00	29.976 
12:25	45.4	45.4	45.4	47	26.4	1	3	292	0.00	29.976 
12:30	45.7	45.7	45.7	46	26.1	1	3	292	0.00	29.970 
12:35	45.7	45.7	45.7	45	25.6	2	4	292	0.00	29.970 
12:40	45.7	45.7	45.7	44	25.0	2	4	315	0.00	29.970 
12:45	45.8	45.8	45.8	46	26.2	1	3	292	0.00	29.960 
12:50	46.2	46.2	46.2	45	26.0	2	3	292	0.00	29.960 
12:55	46.4	46.4	46.4	43	25.1	1	4	292	0.00	29.960 
13:00	46.5	46.5	46.5	45	26.3	1	4	292	0.00	29.956 
13:05	47.0	47.0	47.0	43	25.7	1	6	270	0.00	29.956 
13:10	47.1	47.1	47.1	43	25.8	2	4	270	0.00	29.956 
13:15	47.0	47.0	47.0	42	25.1	2	4	270	0.00	29.952 
13:20	47.1	47.1	47.1	42	25.2	1	4	270	0.00	29.952 
13:25	47.3	47.3	47.3	43	25.9	1	6	292	0.00	29.952 
13:30	47.3	47.3	47.3	38	23.0	2	4	292	0.00	29.944 
13:35	47.1	47.1	47.1	40	24.0	1	3	292	0.00	29.944 
13:40	47.6	47.6	47.6	40	24.5	1	4	292	0.00	29.944 
13:45	47.9	47.9	47.9	42	25.9	0	3	292	0.00	29.932 
13:50	48.0	48.0	48.0	39	24.2	1	3	292	0.00	29.932 
13:55	47.6	47.6	47.6	37	22.6	1	4	292	0.00	29.932 
14:00	47.4	47.4	47.4	38	23.1	0	2	292	0.00	29.929 
14:05	47.4	47.4	47.4	40	24.3	0	1	292	0.00	29.929 
14:10	48.0	48.0	48.0	39	24.2	0	2	292	0.00	29.929 
14:15	48.5	48.5	48.5	39	24.7	1	3	292	0.00	29.927 
14:20	48.5	48.5	48.5	36	22.8	0	3	292	0.00	29.927 
14:25	47.9	47.9	47.9	34	20.9	1	3	292	0.00	29.927 
14:30	47.9	47.9	47.9	39	24.1	0	2	292	0.00	29.921 
14:35	48.0	48.0	48.0	35	21.7	0	2	292	0.00	29.921 
14:40	48.3	48.3	48.3	37	23.3	0	1	248	0.00	29.921 
14:45	48.5	48.5	48.5	33	20.7	0	3	248	0.00	29.911 
14:50	48.5	48.5	48.5	34	21.4	0	2	248	0.00	29.911 
14:55	48.5	48.5	48.5	32	20.0	0	3	248	0.00	29.911 
15:00	48.6	48.6	48.6	34	21.5	0	2	248	0.00	29.910 
15:05	48.8	48.8	48.8	31	19.5	0	1	248	0.00	29.910 
15:10	48.9	48.9	48.9	35	22.5	0	1	248	0.00	29.910 
15:15	48.9	48.9	48.9	35	22.5	0	2	248	0.00	29.907 
15:20	48.8	48.8	48.8	31	19.5	1	3	248	0.00	29.907 
15:25	48.3	48.3	48.3	32	19.8	1	4	248	0.00	29.907 
15:30	48.0	48.0	48.0	33	20.3	1	4	270	0.00	29.907 
15:35	48.0	48.0	48.0	35	21.7	0	4	270	0.00	29.907 
15:40	47.9	47.9	47.9	33	20.2	1	4	315	0.00	29.907 
15:45	47.7	47.7	47.7	33	20.0	1	4	270	0.00	29.904 
15:50	47.7	47.7	47.7	35	21.4	0	1	270	0.00	29.904 
15:55	47.6	47.6	47.6	34	20.6	0	2	270	0.00	29.904 
16:00	47.7	47.7	47.7	35	21.4	0	1	270	0.00	29.910 
16:05	47.6	47.6	47.6	31	18.5	1	3	248	0.00	29.910 
16:10	47.4	47.4	47.4	31	18.3	0	1	68	0.00	29.910 
16:15	47.4	47.4	47.4	35	21.1	0	1	68	0.00	29.914 
16:20	47.3	47.3	47.3	33	19.7	0	1	68	0.00	29.914 
16:25	47.1	47.1	47.1	35	20.9	0	3	68	0.00	29.914 
16:30	46.8	46.8	46.8	35	20.6	0	4	248	0.00	29.914 
16:35	46.4	46.4	46.4	36	20.9	2	7	248	0.00	29.914 
16:40	45.7	45.7	45.7	39	22.2	1	5	292	0.00	29.914 
16:45	45.4	45.4	45.4	40	22.5	1	4	292	0.00	29.923 
16:50	45.2	45.2	45.2	41	22.9	0	1	270	0.00	29.923 
16:55	44.9	44.9	44.9	42	23.2	1	3	270	0.00	29.923 
17:00	44.6	44.6	44.6	45	24.6	0	4	315	0.00	29.921 
17:05	44.1	44.1	44.1	47	25.2	1	4	315	0.00	29.921 
17:10	43.5	43.5	43.5	49	25.6	1	4	315	0.00	29.921 
17:15	42.9	42.9	42.9	50	25.6	2	7	292	0.00	29.933 
17:20	42.8	42.8	42.8	51	25.9	1	3	292	0.00	29.933 
17:25	42.6	42.6	42.6	52	26.2	0	3	292	0.00	29.933 
17:30	42.3	42.3	42.3	54	26.9	0	4	292	0.00	29.942 
17:35	41.9	41.9	41.9	58	28.2	0	2	292	0.00	29.942 
17:40	41.5	41.5	41.5	60	28.7	1	3	292	0.00	29.942 
17:45	41.1	41.1	41.1	64	29.9	0	2	292	0.00	29.949 
17:50	40.6	40.6	40.6	67	30.5	0	3	292	0.00	29.949 
17:55	39.9	39.9	39.9	71	31.3	1	4	292	0.00	29.949 
18:00	39.1	39.1	39.1	74	31.5	1	3	292	0.00	29.953 
18:05	38.3	38.3	38.3	77	31.7	1	3	292	0.00	29.953 
18:10	37.8	37.8	37.8	80	32.2	0	2	292	0.01	29.953 
18:15	37.5	37.5	37.5	81	32.2	0	1	292	0.00	29.956 
18:20	37.3	37.3	37.3	83	32.6	0	3	292	0.00	29.956 
18:25	37.2	37.2	37.2	84	32.8	0	2	292	0.00	29.956 
18:30	36.9	36.9	36.9	85	32.8	0	1	292	0.00	29.955 
18:35	36.8	36.8	36.8	86	33.0	0	1	292	0.01	29.955 
18:40	36.5	36.5	36.5	86	32.7	0	1	292	0.00	29.955 
18:45	36.2	36.2	36.2	87	32.7	0	1	292	0.00	29.954 
18:50	35.9	35.9	35.9	87	32.4	0	1	292	0.00	29.954 
18:55	35.8	35.8	35.8	88	32.6	0	1	292	0.00	29.954 
19:00	35.6	35.6	35.6	88	32.4	0	1	292	0.00	29.949 
19:05	35.6	35.6	35.6	89	32.7	0	1	292	0.01	29.949 
19:10	35.6	35.6	35.6	89	32.7	0	0	---	0.00	29.949 
19:15	35.6	35.6	35.6	89	32.7	0	0	---	0.00	29.950 
19:20	35.8	35.8	35.8	90	33.2	0	1	292	0.00	29.950 
19:25	35.8	35.8	35.8	90	33.2	0	0	---	0.00	29.950 
19:30	35.8	35.8	35.8	90	33.2	0	0	---	0.00	29.946 
19:35	35.8	35.8	35.8	90	33.2	0	0	---	0.00	29.946 
19:40	35.6	35.6	35.6	90	33.0	0	0	---	0.00	29.946 
19:45	35.6	35.6	35.6	90	33.0	0	0	---	0.00	29.940 
19:50	35.8	35.8	35.8	91	33.4	0	0	---	0.00	29.940 
19:55	35.8	35.8	35.8	91	33.4	0	0	---	0.00	29.940 
20:00	35.8	35.8	35.8	91	33.4	0	0	---	0.00	29.942 
20:05	35.8	35.8	35.8	91	33.4	0	0	---	0.00	29.942 
20:10	35.9	35.9	35.9	91	33.5	0	0	---	0.01	29.942 
20:15	35.9	35.9	35.9	91	33.5	0	0	---	0.00	29.937 
20:20	35.9	35.9	35.9	91	33.5	0	0	---	0.00	29.937 
20:25	35.9	35.9	35.9	91	33.5	0	0	---	0.00	29.937 
20:30	35.9	35.9	35.9	91	33.5	0	0	---	0.00	29.941 
20:35	35.9	35.9	35.9	91	33.5	0	0	---	0.00	29.941 
20:40	36.0	36.0	36.0	92	33.9	0	0	---	0.00	29.941 
20:45	36.0	36.0	36.0	92	33.9	0	0	---	0.00	29.939 
20:50	35.9	35.9	35.9	92	33.8	0	0	---	0.00	29.939 
20:55	35.9	35.9	35.9	92	33.8	0	0	---	0.00	29.939 
21:00	36.0	36.0	36.0	92	33.9	0	0	---	0.00	29.939 
21:05	36.0	36.0	36.0	92	33.9	0	0	---	0.00	29.939 
21:10	36.0	36.0	36.0	92	33.9	0	0	---	0.00	29.939 
21:15	36.0	36.0	36.0	92	33.9	0	0	---	0.00	29.935 
21:20	36.0	36.0	36.0	92	33.9	0	0	---	0.00	29.935 
21:25	36.0	36.0	36.0	92	33.9	0	0	---	0.00	29.935 
21:30	36.0	36.0	36.0	92	33.9	0	0	---	0.00	29.934 
21:35	36.0	36.0	36.0	92	33.9	0	0	---	0.00	29.934 
21:40	36.0	36.0	36.0	92	33.9	0	0	---	0.00	29.934 
21:45	36.2	36.2	36.2	92	34.1	0	0	---	0.00	29.935 
21:50	36.2	36.2	36.2	92	34.1	0	0	---	0.00	29.935 
21:55	36.3	36.3	36.3	92	34.2	0	0	---	0.00	29.935 
22:00	36.3	36.3	36.3	92	34.2	0	0	---	0.00	29.934 
22:05	36.3	36.3	36.3	92	34.2	0	0	---	0.00	29.934 
22:10	36.3	36.3	36.3	92	34.2	0	0	---	0.01	29.934 
22:15	36.3	36.3	36.3	92	34.2	0	0	---	0.00	29.931 
22:20	36.2	36.2	36.2	92	34.1	0	0	---	0.00	29.931 
22:25	36.2	36.2	36.2	92	34.1	0	0	---	0.00	29.931 
22:30	36.0	36.0	36.0	92	33.9	0	0	---	0.00	29.929 
22:35	36.0	36.0	36.0	92	33.9	0	0	---	0.00	29.929 
22:40	35.9	35.9	35.9	92	33.8	0	0	---	0.00	29.929 
22:45	35.9	35.9	35.9	92	33.8	0	0	---	0.00	29.925 
22:50	35.9	35.9	35.9	92	33.8	0	0	---	0.00	29.925 
22:55	35.9	35.9	35.9	92	33.8	0	0	---	0.00	29.925 
23:00	36.0	36.0	36.0	92	33.9	0	0	---	0.00	29.924 
23:05	35.9	35.9	35.9	92	33.8	0	0	---	0.01	29.924 
23:10	35.9	35.9	35.9	92	33.8	0	0	---	0.00	29.924 
23:15	35.9	35.9	35.9	92	33.8	0	0	---	0.00	29.917 
23:20	36.0	36.0	36.0	92	33.9	0	0	---	0.00	29.917 
23:25	36.0	36.0	36.0	92	33.9	0	0	---	0.00	29.917 
23:30	36.0	36.0	36.0	92	33.9	0	0	---	0.00	29.913 
23:35	36.2	36.2	36.2	92	34.1	0	0	---	0.00	29.913 
23:40	36.2	36.2	36.2	92	34.1	0	0	---	0.00	29.913 
23:45	36.2	36.2	36.2	92	34.1	0	0	---	0.00	29.908 
23:50	36.2	36.2	36.2	92	34.1	0	0	---	0.00	29.908 
23:55	36.3	36.3	36.3	92	34.2	0	0	---	0.00	29.908 

CoCoRaHS
IN-AL-39
A2 Web Hosting
Creative Commons License
GoDaddy
search engine by freefind advanced

loaded 2018-11-13 22:33:14 • last modified 2010-11-18 10:43:29
Privacy PolicyDisclaimer
• wx.awcolley.com is powered by PmWiki v.2002016 •
• all content (unless otherwise noted) © 2018 A W Colley